sensor_id;sensor_type;location;lat;lon;timestamp;temperature;humidity
11221;DHT22;8517;53.546;10.104;2022-10-16T00:01:42;17.30;99.90
11221;DHT22;8517;53.546;10.104;2022-10-16T00:04:08;17.30;99.90
11221;DHT22;8517;53.546;10.104;2022-10-16T00:06:35;17.20;99.90
11221;DHT22;8517;53.546;10.104;2022-10-16T00:09:02;17.20;99.90
11221;DHT22;8517;53.546;10.104;2022-10-16T00:11:32;17.20;99.90
11221;DHT22;8517;53.546;10.104;2022-10-16T00:14:03;17.20;99.90
11221;DHT22;8517;53.546;10.104;2022-10-16T00:16:31;17.20;99.90
11221;DHT22;8517;53.546;10.104;2022-10-16T00:18:58;17.20;99.90
11221;DHT22;8517;53.546;10.104;2022-10-16T00:21:27;17.20;99.90
11221;DHT22;8517;53.546;10.104;2022-10-16T00:23:56;17.10;99.90
11221;DHT22;8517;53.546;10.104;2022-10-16T00:26:24;17.10;99.90
11221;DHT22;8517;53.546;10.104;2022-10-16T00:28:52;17.10;99.90
11221;DHT22;8517;53.546;10.104;2022-10-16T00:31:21;17.00;99.90
11221;DHT22;8517;53.546;10.104;2022-10-16T00:33:49;17.00;99.90
11221;DHT22;8517;53.546;10.104;2022-10-16T00:36:17;17.00;99.90
11221;DHT22;8517;53.546;10.104;2022-10-16T00:38:45;16.90;99.90
11221;DHT22;8517;53.546;10.104;2022-10-16T00:41:15;16.90;99.90
11221;DHT22;8517;53.546;10.104;2022-10-16T00:43:44;16.80;99.90
11221;DHT22;8517;53.546;10.104;2022-10-16T00:46:16;16.80;99.90
11221;DHT22;8517;53.546;10.104;2022-10-16T00:48:50;16.80;99.90
11221;DHT22;8517;53.546;10.104;2022-10-16T00:51:19;16.80;99.90
11221;DHT22;8517;53.546;10.104;2022-10-16T00:53:48;16.70;99.90
11221;DHT22;8517;53.546;10.104;2022-10-16T00:56:16;16.70;99.90
11221;DHT22;8517;53.546;10.104;2022-10-16T00:58:42;16.70;99.90
11221;DHT22;8517;53.546;10.104;2022-10-16T01:01:09;16.60;99.90
11221;DHT22;8517;53.546;10.104;2022-10-16T01:03:38;16.60;99.90
11221;DHT22;8517;53.546;10.104;2022-10-16T01:06:21;16.60;99.90
11221;DHT22;8517;53.546;10.104;2022-10-16T01:09:02;16.50;99.90
11221;DHT22;8517;53.546;10.104;2022-10-16T01:11:35;16.50;99.90
11221;DHT22;8517;53.546;10.104;2022-10-16T01:14:11;16.50;99.90
11221;DHT22;8517;53.546;10.104;2022-10-16T01:16:43;16.50;99.90
11221;DHT22;8517;53.546;10.104;2022-10-16T01:19:17;16.40;99.90
11221;DHT22;8517;53.546;10.104;2022-10-16T01:21:48;16.40;99.90
11221;DHT22;8517;53.546;10.104;2022-10-16T01:24:27;16.40;99.90
11221;DHT22;8517;53.546;10.104;2022-10-16T01:27:07;16.40;99.90
11221;DHT22;8517;53.546;10.104;2022-10-16T01:29:37;16.40;99.90
11221;DHT22;8517;53.546;10.104;2022-10-16T01:32:11;16.40;99.90
11221;DHT22;8517;53.546;10.104;2022-10-16T01:34:47;16.40;99.90
11221;DHT22;8517;53.546;10.104;2022-10-16T01:37:20;16.40;99.90
11221;DHT22;8517;53.546;10.104;2022-10-16T01:39:49;16.40;99.90
11221;DHT22;8517;53.546;10.104;2022-10-16T01:42:21;16.40;99.90
11221;DHT22;8517;53.546;10.104;2022-10-16T01:44:50;16.30;99.90
11221;DHT22;8517;53.546;10.104;2022-10-16T01:47:19;16.30;99.90
11221;DHT22;8517;53.546;10.104;2022-10-16T01:49:46;16.30;99.90
11221;DHT22;8517;53.546;10.104;2022-10-16T01:52:16;16.30;99.90
11221;DHT22;8517;53.546;10.104;2022-10-16T01:54:46;16.30;99.90
11221;DHT22;8517;53.546;10.104;2022-10-16T01:57:14;16.30;99.90
11221;DHT22;8517;53.546;10.104;2022-10-16T01:59:45;16.30;99.90
11221;DHT22;8517;53.546;10.104;2022-10-16T02:02:13;16.30;99.90
11221;DHT22;8517;53.546;10.104;2022-10-16T02:04:44;16.20;99.90
11221;DHT22;8517;53.546;10.104;2022-10-16T02:07:12;16.20;99.90
11221;DHT22;8517;53.546;10.104;2022-10-16T02:09:39;16.20;99.90
11221;DHT22;8517;53.546;10.104;2022-10-16T02:12:09;16.20;99.90
11221;DHT22;8517;53.546;10.104;2022-10-16T02:14:39;16.20;99.90
11221;DHT22;8517;53.546;10.104;2022-10-16T02:17:12;16.10;99.90
11221;DHT22;8517;53.546;10.104;2022-10-16T02:19:39;16.10;99.90
11221;DHT22;8517;53.546;10.104;2022-10-16T02:22:08;16.10;99.90
11221;DHT22;8517;53.546;10.104;2022-10-16T02:24:39;16.10;99.90
11221;DHT22;8517;53.546;10.104;2022-10-16T02:27:11;16.10;99.90
11221;DHT22;8517;53.546;10.104;2022-10-16T02:29:42;16.00;99.90
11221;DHT22;8517;53.546;10.104;2022-10-16T02:32:13;16.00;99.90
11221;DHT22;8517;53.546;10.104;2022-10-16T02:34:42;16.00;99.90
11221;DHT22;8517;53.546;10.104;2022-10-16T02:37:10;15.90;99.90
11221;DHT22;8517;53.546;10.104;2022-10-16T02:39:38;15.90;99.90
11221;DHT22;8517;53.546;10.104;2022-10-16T02:42:09;15.90;99.90
11221;DHT22;8517;53.546;10.104;2022-10-16T02:44:36;15.90;99.90
11221;DHT22;8517;53.546;10.104;2022-10-16T02:47:03;15.80;99.90
11221;DHT22;8517;53.546;10.104;2022-10-16T02:49:31;15.80;99.90
11221;DHT22;8517;53.546;10.104;2022-10-16T02:51:58;15.80;99.90
11221;DHT22;8517;53.546;10.104;2022-10-16T02:54:24;15.70;99.90
11221;DHT22;8517;53.546;10.104;2022-10-16T02:56:51;15.70;99.90
11221;DHT22;8517;53.546;10.104;2022-10-16T02:59:18;15.70;99.90
11221;DHT22;8517;53.546;10.104;2022-10-16T03:01:44;15.70;99.90
11221;DHT22;8517;53.546;10.104;2022-10-16T03:04:11;15.70;99.90
11221;DHT22;8517;53.546;10.104;2022-10-16T03:06:39;15.60;99.90
11221;DHT22;8517;53.546;10.104;2022-10-16T03:09:06;15.70;99.90
11221;DHT22;8517;53.546;10.104;2022-10-16T03:11:33;15.60;99.90
11221;DHT22;8517;53.546;10.104;2022-10-16T03:14:00;15.60;99.90
11221;DHT22;8517;53.546;10.104;2022-10-16T03:16:26;15.60;99.90
11221;DHT22;8517;53.546;10.104;2022-10-16T03:18:53;15.50;99.90
11221;DHT22;8517;53.546;10.104;2022-10-16T03:21:20;15.50;99.90
11221;DHT22;8517;53.546;10.104;2022-10-16T03:23:48;15.40;99.90
11221;DHT22;8517;53.546;10.104;2022-10-16T03:26:14;15.40;99.90
11221;DHT22;8517;53.546;10.104;2022-10-16T03:28:41;15.40;99.90
11221;DHT22;8517;53.546;10.104;2022-10-16T03:31:07;15.40;99.90
11221;DHT22;8517;53.546;10.104;2022-10-16T03:33:34;15.40;99.90
11221;DHT22;8517;53.546;10.104;2022-10-16T03:36:01;15.30;99.90
11221;DHT22;8517;53.546;10.104;2022-10-16T03:38:28;15.30;99.90
11221;DHT22;8517;53.546;10.104;2022-10-16T03:40:56;15.30;99.90
11221;DHT22;8517;53.546;10.104;2022-10-16T03:43:22;15.30;99.90
11221;DHT22;8517;53.546;10.104;2022-10-16T03:45:50;15.30;99.90
11221;DHT22;8517;53.546;10.104;2022-10-16T03:48:16;15.20;99.90
11221;DHT22;8517;53.546;10.104;2022-10-16T03:50:43;15.20;99.90
11221;DHT22;8517;53.546;10.104;2022-10-16T03:53:10;15.20;99.90
11221;DHT22;8517;53.546;10.104;2022-10-16T03:55:37;15.20;99.90
11221;DHT22;8517;53.546;10.104;2022-10-16T03:58:05;15.20;99.90
11221;DHT22;8517;53.546;10.104;2022-10-16T04:00:31;15.20;99.90
11221;DHT22;8517;53.546;10.104;2022-10-16T04:02:58;15.20;99.90
11221;DHT22;8517;53.546;10.104;2022-10-16T04:05:25;15.20;99.90
11221;DHT22;8517;53.546;10.104;2022-10-16T04:07:52;15.20;99.90
11221;DHT22;8517;53.546;10.104;2022-10-16T04:10:18;15.20;99.90
11221;DHT22;8517;53.546;10.104;2022-10-16T04:12:45;15.20;99.90
11221;DHT22;8517;53.546;10.104;2022-10-16T04:15:13;15.10;99.90
11221;DHT22;8517;53.546;10.104;2022-10-16T04:17:40;15.10;99.90
11221;DHT22;8517;53.546;10.104;2022-10-16T04:20:07;15.10;99.90
11221;DHT22;8517;53.546;10.104;2022-10-16T04:22:34;15.10;99.90
11221;DHT22;8517;53.546;10.104;2022-10-16T04:25:01;15.10;99.90
11221;DHT22;8517;53.546;10.104;2022-10-16T04:27:27;15.00;99.90
11221;DHT22;8517;53.546;10.104;2022-10-16T04:29:56;15.10;99.90
11221;DHT22;8517;53.546;10.104;2022-10-16T04:32:24;15.10;99.90
11221;DHT22;8517;53.546;10.104;2022-10-16T04:34:51;15.10;99.90
11221;DHT22;8517;53.546;10.104;2022-10-16T04:37:18;15.10;99.90
11221;DHT22;8517;53.546;10.104;2022-10-16T04:39:44;15.10;99.90
11221;DHT22;8517;53.546;10.104;2022-10-16T04:42:11;15.00;99.90
11221;DHT22;8517;53.546;10.104;2022-10-16T04:44:38;15.10;99.90
11221;DHT22;8517;53.546;10.104;2022-10-16T04:47:05;15.00;99.90
11221;DHT22;8517;53.546;10.104;2022-10-16T04:49:33;15.10;99.90
11221;DHT22;8517;53.546;10.104;2022-10-16T04:51:59;15.00;99.90
11221;DHT22;8517;53.546;10.104;2022-10-16T04:54:26;15.10;99.90
11221;DHT22;8517;53.546;10.104;2022-10-16T04:56:53;15.10;99.90
11221;DHT22;8517;53.546;10.104;2022-10-16T04:59:20;15.00;99.90
11221;DHT22;8517;53.546;10.104;2022-10-16T05:01:47;15.10;99.90
11221;DHT22;8517;53.546;10.104;2022-10-16T05:04:15;15.10;99.90
11221;DHT22;8517;53.546;10.104;2022-10-16T05:06:43;15.00;99.90
11221;DHT22;8517;53.546;10.104;2022-10-16T05:09:10;15.00;99.90
11221;DHT22;8517;53.546;10.104;2022-10-16T05:11:37;15.00;99.90
11221;DHT22;8517;53.546;10.104;2022-10-16T05:14:03;15.00;99.90
11221;DHT22;8517;53.546;10.104;2022-10-16T05:16:30;15.00;99.90
11221;DHT22;8517;53.546;10.104;2022-10-16T05:19:21;15.00;99.90
11221;DHT22;8517;53.546;10.104;2022-10-16T05:22:09;15.00;99.90
11221;DHT22;8517;53.546;10.104;2022-10-16T05:24:36;15.00;99.90
11221;DHT22;8517;53.546;10.104;2022-10-16T05:27:03;14.90;99.90
11221;DHT22;8517;53.546;10.104;2022-10-16T05:29:29;15.00;99.90
11221;DHT22;8517;53.546;10.104;2022-10-16T05:31:56;14.90;99.90
11221;DHT22;8517;53.546;10.104;2022-10-16T05:34:23;15.00;99.90
11221;DHT22;8517;53.546;10.104;2022-10-16T05:36:49;14.90;99.90
11221;DHT22;8517;53.546;10.104;2022-10-16T05:39:18;14.90;99.90
11221;DHT22;8517;53.546;10.104;2022-10-16T05:41:44;14.90;99.90
11221;DHT22;8517;53.546;10.104;2022-10-16T05:44:11;14.90;99.90
11221;DHT22;8517;53.546;10.104;2022-10-16T05:46:38;14.90;99.90
11221;DHT22;8517;53.546;10.104;2022-10-16T05:49:04;14.90;99.90
11221;DHT22;8517;53.546;10.104;2022-10-16T05:51:31;14.90;99.90
11221;DHT22;8517;53.546;10.104;2022-10-16T05:53:58;14.90;99.90
11221;DHT22;8517;53.546;10.104;2022-10-16T05:56:26;14.90;99.90
11221;DHT22;8517;53.546;10.104;2022-10-16T05:58:52;14.90;99.90
11221;DHT22;8517;53.546;10.104;2022-10-16T06:01:19;14.90;99.90
11221;DHT22;8517;53.546;10.104;2022-10-16T06:03:49;14.90;99.90
11221;DHT22;8517;53.546;10.104;2022-10-16T06:06:17;14.90;99.90
11221;DHT22;8517;53.546;10.104;2022-10-16T06:08:45;14.90;99.90
11221;DHT22;8517;53.546;10.104;2022-10-16T06:11:13;14.90;99.90
11221;DHT22;8517;53.546;10.104;2022-10-16T06:13:42;14.90;99.90
11221;DHT22;8517;53.546;10.104;2022-10-16T06:16:12;14.90;99.90
11221;DHT22;8517;53.546;10.104;2022-10-16T06:18:39;14.90;99.90
11221;DHT22;8517;53.546;10.104;2022-10-16T06:21:11;14.90;99.90
11221;DHT22;8517;53.546;10.104;2022-10-16T06:23:38;15.00;99.90
11221;DHT22;8517;53.546;10.104;2022-10-16T06:26:06;14.90;99.90
11221;DHT22;8517;53.546;10.104;2022-10-16T06:28:33;15.00;99.90
11221;DHT22;8517;53.546;10.104;2022-10-16T06:31:02;15.00;99.90
11221;DHT22;8517;53.546;10.104;2022-10-16T06:33:29;15.00;99.90
11221;DHT22;8517;53.546;10.104;2022-10-16T06:36:00;15.00;99.90
11221;DHT22;8517;53.546;10.104;2022-10-16T06:38:27;15.00;99.90
11221;DHT22;8517;53.546;10.104;2022-10-16T06:40:54;15.00;99.90
11221;DHT22;8517;53.546;10.104;2022-10-16T06:43:21;15.00;99.90
11221;DHT22;8517;53.546;10.104;2022-10-16T06:45:51;15.00;99.90
11221;DHT22;8517;53.546;10.104;2022-10-16T06:48:19;15.00;99.90
11221;DHT22;8517;53.546;10.104;2022-10-16T06:50:55;15.00;99.90
11221;DHT22;8517;53.546;10.104;2022-10-16T06:53:22;15.00;99.90
11221;DHT22;8517;53.546;10.104;2022-10-16T06:55:48;15.00;99.90
11221;DHT22;8517;53.546;10.104;2022-10-16T06:58:15;15.10;99.90
11221;DHT22;8517;53.546;10.104;2022-10-16T07:00:42;15.10;99.90
11221;DHT22;8517;53.546;10.104;2022-10-16T07:03:08;15.10;99.90
11221;DHT22;8517;53.546;10.104;2022-10-16T07:05:38;15.20;99.90
11221;DHT22;8517;53.546;10.104;2022-10-16T07:08:05;15.20;99.90
11221;DHT22;8517;53.546;10.104;2022-10-16T07:10:32;15.30;99.90
11221;DHT22;8517;53.546;10.104;2022-10-16T07:12:59;15.30;99.90
11221;DHT22;8517;53.546;10.104;2022-10-16T07:15:26;15.40;99.90
11221;DHT22;8517;53.546;10.104;2022-10-16T07:17:54;15.50;99.90
11221;DHT22;8517;53.546;10.104;2022-10-16T07:20:20;15.60;99.90
11221;DHT22;8517;53.546;10.104;2022-10-16T07:22:48;15.60;99.90
11221;DHT22;8517;53.546;10.104;2022-10-16T07:25:16;15.70;99.90
11221;DHT22;8517;53.546;10.104;2022-10-16T07:27:42;15.80;99.90
11221;DHT22;8517;53.546;10.104;2022-10-16T07:30:10;15.90;99.90
11221;DHT22;8517;53.546;10.104;2022-10-16T07:32:37;15.90;99.90
11221;DHT22;8517;53.546;10.104;2022-10-16T07:35:04;16.10;99.90
11221;DHT22;8517;53.546;10.104;2022-10-16T07:37:31;16.20;99.90
11221;DHT22;8517;53.546;10.104;2022-10-16T07:39:59;16.30;99.90
11221;DHT22;8517;53.546;10.104;2022-10-16T07:42:27;16.40;99.90
11221;DHT22;8517;53.546;10.104;2022-10-16T07:44:53;16.40;99.90
11221;DHT22;8517;53.546;10.104;2022-10-16T07:47:20;16.50;99.90
11221;DHT22;8517;53.546;10.104;2022-10-16T07:49:47;16.50;99.90
11221;DHT22;8517;53.546;10.104;2022-10-16T07:52:13;16.60;99.90
11221;DHT22;8517;53.546;10.104;2022-10-16T07:54:40;16.60;99.90
11221;DHT22;8517;53.546;10.104;2022-10-16T07:57:08;16.70;99.90
11221;DHT22;8517;53.546;10.104;2022-10-16T07:59:35;16.80;99.90
11221;DHT22;8517;53.546;10.104;2022-10-16T08:02:01;16.80;99.90
11221;DHT22;8517;53.546;10.104;2022-10-16T08:04:28;16.90;99.90
11221;DHT22;8517;53.546;10.104;2022-10-16T08:06:55;17.00;99.90
11221;DHT22;8517;53.546;10.104;2022-10-16T08:09:22;17.10;99.90
11221;DHT22;8517;53.546;10.104;2022-10-16T08:11:48;17.20;99.90
11221;DHT22;8517;53.546;10.104;2022-10-16T08:14:16;17.30;99.90
11221;DHT22;8517;53.546;10.104;2022-10-16T08:16:43;17.30;99.90
11221;DHT22;8517;53.546;10.104;2022-10-16T08:19:10;17.40;99.90
11221;DHT22;8517;53.546;10.104;2022-10-16T08:21:36;17.40;99.90
11221;DHT22;8517;53.546;10.104;2022-10-16T08:24:03;17.40;99.90
11221;DHT22;8517;53.546;10.104;2022-10-16T08:26:30;17.40;99.90
11221;DHT22;8517;53.546;10.104;2022-10-16T08:28:57;17.40;99.90
11221;DHT22;8517;53.546;10.104;2022-10-16T08:31:25;17.40;99.90
11221;DHT22;8517;53.546;10.104;2022-10-16T08:33:52;17.40;99.90
11221;DHT22;8517;53.546;10.104;2022-10-16T08:36:19;17.40;99.90
11221;DHT22;8517;53.546;10.104;2022-10-16T08:38:48;17.40;99.90
11221;DHT22;8517;53.546;10.104;2022-10-16T08:41:30;17.40;99.90
11221;DHT22;8517;53.546;10.104;2022-10-16T08:44:27;17.50;99.90
11221;DHT22;8517;53.546;10.104;2022-10-16T08:47:02;17.50;99.90
11221;DHT22;8517;53.546;10.104;2022-10-16T08:49:31;17.70;99.90
11221;DHT22;8517;53.546;10.104;2022-10-16T08:51:58;17.80;99.90
11221;DHT22;8517;53.546;10.104;2022-10-16T08:54:28;17.90;99.90
11221;DHT22;8517;53.546;10.104;2022-10-16T08:56:57;17.90;99.90
11221;DHT22;8517;53.546;10.104;2022-10-16T08:59:26;18.10;99.90
11221;DHT22;8517;53.546;10.104;2022-10-16T09:01:53;18.10;99.90
11221;DHT22;8517;53.546;10.104;2022-10-16T09:04:36;18.20;99.90
11221;DHT22;8517;53.546;10.104;2022-10-16T09:07:12;18.30;99.90
11221;DHT22;8517;53.546;10.104;2022-10-16T09:09:58;18.40;99.90
11221;DHT22;8517;53.546;10.104;2022-10-16T09:12:33;18.50;99.90
11221;DHT22;8517;53.546;10.104;2022-10-16T09:15:14;18.50;99.90
11221;DHT22;8517;53.546;10.104;2022-10-16T09:17:51;18.60;99.90
11221;DHT22;8517;53.546;10.104;2022-10-16T09:20:31;18.70;99.90
11221;DHT22;8517;53.546;10.104;2022-10-16T09:23:12;18.70;99.90
11221;DHT22;8517;53.546;10.104;2022-10-16T09:25:41;18.80;99.90
11221;DHT22;8517;53.546;10.104;2022-10-16T09:28:09;18.90;99.90
11221;DHT22;8517;53.546;10.104;2022-10-16T09:30:37;18.90;99.90
11221;DHT22;8517;53.546;10.104;2022-10-16T09:33:05;18.90;99.90
11221;DHT22;8517;53.546;10.104;2022-10-16T09:35:37;19.00;99.90
11221;DHT22;8517;53.546;10.104;2022-10-16T09:38:04;19.10;99.90
11221;DHT22;8517;53.546;10.104;2022-10-16T09:40:33;19.20;99.90
11221;DHT22;8517;53.546;10.104;2022-10-16T09:43:06;19.20;99.90
11221;DHT22;8517;53.546;10.104;2022-10-16T09:45:38;19.30;99.90
11221;DHT22;8517;53.546;10.104;2022-10-16T09:48:11;19.40;99.90
11221;DHT22;8517;53.546;10.104;2022-10-16T09:50:39;19.50;99.90
11221;DHT22;8517;53.546;10.104;2022-10-16T09:53:10;19.50;99.90
11221;DHT22;8517;53.546;10.104;2022-10-16T09:55:48;19.50;99.90
11221;DHT22;8517;53.546;10.104;2022-10-16T09:58:15;19.60;99.90
11221;DHT22;8517;53.546;10.104;2022-10-16T10:00:48;19.60;99.90
11221;DHT22;8517;53.546;10.104;2022-10-16T10:03:32;19.60;99.90
11221;DHT22;8517;53.546;10.104;2022-10-16T10:06:14;19.70;99.90
11221;DHT22;8517;53.546;10.104;2022-10-16T10:08:56;19.70;99.90
11221;DHT22;8517;53.546;10.104;2022-10-16T10:11:44;19.80;99.90
11221;DHT22;8517;53.546;10.104;2022-10-16T10:14:19;19.80;99.90
11221;DHT22;8517;53.546;10.104;2022-10-16T10:16:47;19.80;99.90
11221;DHT22;8517;53.546;10.104;2022-10-16T10:19:16;19.90;99.90
11221;DHT22;8517;53.546;10.104;2022-10-16T10:21:45;19.80;99.90
11221;DHT22;8517;53.546;10.104;2022-10-16T10:24:14;19.80;99.90
11221;DHT22;8517;53.546;10.104;2022-10-16T10:26:48;19.90;99.90
11221;DHT22;8517;53.546;10.104;2022-10-16T10:29:22;19.90;99.90
11221;DHT22;8517;53.546;10.104;2022-10-16T10:31:58;19.90;99.90
11221;DHT22;8517;53.546;10.104;2022-10-16T10:34:44;19.90;99.90
11221;DHT22;8517;53.546;10.104;2022-10-16T10:37:23;20.00;99.90
11221;DHT22;8517;53.546;10.104;2022-10-16T10:39:59;20.10;99.90
11221;DHT22;8517;53.546;10.104;2022-10-16T10:42:35;20.20;99.90
11221;DHT22;8517;53.546;10.104;2022-10-16T10:45:17;20.20;99.90
11221;DHT22;8517;53.546;10.104;2022-10-16T10:47:52;20.30;99.90
11221;DHT22;8517;53.546;10.104;2022-10-16T10:50:25;20.30;99.90
11221;DHT22;8517;53.546;10.104;2022-10-16T10:53:06;20.30;99.90
11221;DHT22;8517;53.546;10.104;2022-10-16T10:55:42;20.40;99.90
11221;DHT22;8517;53.546;10.104;2022-10-16T11:01:08;20.40;99.90
11221;DHT22;8517;53.546;10.104;2022-10-16T11:04:01;20.40;99.90
11221;DHT22;8517;53.546;10.104;2022-10-16T11:06:34;20.40;99.90
11221;DHT22;8517;53.546;10.104;2022-10-16T11:09:11;20.30;99.90
11221;DHT22;8517;53.546;10.104;2022-10-16T11:11:42;20.30;99.90
11221;DHT22;8517;53.546;10.104;2022-10-16T11:14:15;20.30;99.90
11221;DHT22;8517;53.546;10.104;2022-10-16T11:16:47;20.30;99.90
11221;DHT22;8517;53.546;10.104;2022-10-16T11:19:22;20.40;99.90
11221;DHT22;8517;53.546;10.104;2022-10-16T11:21:55;20.50;99.90
11221;DHT22;8517;53.546;10.104;2022-10-16T11:24:36;20.50;99.90
11221;DHT22;8517;53.546;10.104;2022-10-16T11:27:08;20.50;99.90
11221;DHT22;8517;53.546;10.104;2022-10-16T11:29:41;20.60;99.90
11221;DHT22;8517;53.546;10.104;2022-10-16T11:32:19;20.60;99.90
11221;DHT22;8517;53.546;10.104;2022-10-16T11:34:50;20.70;99.90
11221;DHT22;8517;53.546;10.104;2022-10-16T11:37:21;20.70;99.90
11221;DHT22;8517;53.546;10.104;2022-10-16T11:39:54;20.80;99.90
11221;DHT22;8517;53.546;10.104;2022-10-16T11:42:29;20.80;99.90
11221;DHT22;8517;53.546;10.104;2022-10-16T11:45:02;20.80;99.90
11221;DHT22;8517;53.546;10.104;2022-10-16T11:47:35;20.80;99.90
11221;DHT22;8517;53.546;10.104;2022-10-16T11:50:13;20.70;99.90
11221;DHT22;8517;53.546;10.104;2022-10-16T11:52:51;20.80;99.90
11221;DHT22;8517;53.546;10.104;2022-10-16T11:55:23;20.80;99.90
11221;DHT22;8517;53.546;10.104;2022-10-16T11:57:53;20.80;99.90
11221;DHT22;8517;53.546;10.104;2022-10-16T12:00:24;20.80;99.90
11221;DHT22;8517;53.546;10.104;2022-10-16T12:03:00;20.80;99.90
11221;DHT22;8517;53.546;10.104;2022-10-16T12:05:39;20.80;99.90
11221;DHT22;8517;53.546;10.104;2022-10-16T12:08:13;20.80;99.90
11221;DHT22;8517;53.546;10.104;2022-10-16T12:10:44;20.80;99.90
11221;DHT22;8517;53.546;10.104;2022-10-16T12:13:29;20.80;99.90
11221;DHT22;8517;53.546;10.104;2022-10-16T12:16:19;20.90;99.90
11221;DHT22;8517;53.546;10.104;2022-10-16T12:18:47;20.90;99.90
11221;DHT22;8517;53.546;10.104;2022-10-16T12:21:16;21.00;99.90
11221;DHT22;8517;53.546;10.104;2022-10-16T12:23:48;21.00;99.90
11221;DHT22;8517;53.546;10.104;2022-10-16T12:26:24;21.00;99.90
11221;DHT22;8517;53.546;10.104;2022-10-16T12:28:51;21.00;99.90
11221;DHT22;8517;53.546;10.104;2022-10-16T12:31:18;21.00;99.90
11221;DHT22;8517;53.546;10.104;2022-10-16T12:33:56;21.00;99.90
11221;DHT22;8517;53.546;10.104;2022-10-16T12:36:28;21.00;99.90
11221;DHT22;8517;53.546;10.104;2022-10-16T12:38:55;20.90;99.90
11221;DHT22;8517;53.546;10.104;2022-10-16T12:41:29;20.90;99.90
11221;DHT22;8517;53.546;10.104;2022-10-16T12:43:57;20.80;99.90
11221;DHT22;8517;53.546;10.104;2022-10-16T12:46:39;20.80;99.90
11221;DHT22;8517;53.546;10.104;2022-10-16T12:49:31;20.70;99.90
11221;DHT22;8517;53.546;10.104;2022-10-16T12:51:59;20.70;99.90
11221;DHT22;8517;53.546;10.104;2022-10-16T12:54:28;20.70;99.90
11221;DHT22;8517;53.546;10.104;2022-10-16T12:57:19;20.70;99.90
11221;DHT22;8517;53.546;10.104;2022-10-16T12:59:56;20.70;99.90
11221;DHT22;8517;53.546;10.104;2022-10-16T13:02:48;20.70;99.90
11221;DHT22;8517;53.546;10.104;2022-10-16T13:05:34;20.70;99.90
11221;DHT22;8517;53.546;10.104;2022-10-16T13:08:34;20.70;99.90
11221;DHT22;8517;53.546;10.104;2022-10-16T13:11:08;20.70;99.90
11221;DHT22;8517;53.546;10.104;2022-10-16T13:14:01;20.70;99.90
11221;DHT22;8517;53.546;10.104;2022-10-16T13:16:35;20.70;99.90
11221;DHT22;8517;53.546;10.104;2022-10-16T13:19:14;21.00;99.90
11221;DHT22;8517;53.546;10.104;2022-10-16T13:21:49;21.20;99.90
11221;DHT22;8517;53.546;10.104;2022-10-16T13:24:28;21.40;99.90
11221;DHT22;8517;53.546;10.104;2022-10-16T13:27:05;21.50;99.90
11221;DHT22;8517;53.546;10.104;2022-10-16T13:29:35;21.50;99.90
11221;DHT22;8517;53.546;10.104;2022-10-16T13:32:07;21.50;99.90
11221;DHT22;8517;53.546;10.104;2022-10-16T13:34:43;21.50;99.90
11221;DHT22;8517;53.546;10.104;2022-10-16T13:37:17;21.40;99.90
11221;DHT22;8517;53.546;10.104;2022-10-16T13:39:44;21.30;99.90
11221;DHT22;8517;53.546;10.104;2022-10-16T13:42:13;21.30;99.90
11221;DHT22;8517;53.546;10.104;2022-10-16T13:44:44;21.20;99.90
11221;DHT22;8517;53.546;10.104;2022-10-16T13:47:16;21.20;99.90
11221;DHT22;8517;53.546;10.104;2022-10-16T13:49:44;21.10;99.90
11221;DHT22;8517;53.546;10.104;2022-10-16T13:52:18;21.10;99.90
11221;DHT22;8517;53.546;10.104;2022-10-16T13:54:45;21.10;99.90
11221;DHT22;8517;53.546;10.104;2022-10-16T13:57:13;21.00;99.90
11221;DHT22;8517;53.546;10.104;2022-10-16T13:59:40;21.10;99.90
11221;DHT22;8517;53.546;10.104;2022-10-16T14:02:19;21.10;99.90
11221;DHT22;8517;53.546;10.104;2022-10-16T14:04:46;21.10;99.90
11221;DHT22;8517;53.546;10.104;2022-10-16T14:07:16;21.10;99.90
11221;DHT22;8517;53.546;10.104;2022-10-16T14:09:48;21.10;99.90
11221;DHT22;8517;53.546;10.104;2022-10-16T14:12:16;21.00;99.90
11221;DHT22;8517;53.546;10.104;2022-10-16T14:14:44;21.00;99.90
11221;DHT22;8517;53.546;10.104;2022-10-16T14:17:18;21.00;99.90
11221;DHT22;8517;53.546;10.104;2022-10-16T14:19:46;21.00;99.90
11221;DHT22;8517;53.546;10.104;2022-10-16T14:22:28;20.90;99.90
11221;DHT22;8517;53.546;10.104;2022-10-16T14:24:55;20.90;99.90
11221;DHT22;8517;53.546;10.104;2022-10-16T14:27:28;20.90;99.90
11221;DHT22;8517;53.546;10.104;2022-10-16T14:30:12;20.90;99.90
11221;DHT22;8517;53.546;10.104;2022-10-16T14:32:52;20.90;99.90
11221;DHT22;8517;53.546;10.104;2022-10-16T14:35:32;20.80;99.90
11221;DHT22;8517;53.546;10.104;2022-10-16T14:38:00;20.90;99.90
11221;DHT22;8517;53.546;10.104;2022-10-16T14:40:29;20.90;99.90
11221;DHT22;8517;53.546;10.104;2022-10-16T14:42:56;20.90;99.90
11221;DHT22;8517;53.546;10.104;2022-10-16T14:45:26;20.90;99.90
11221;DHT22;8517;53.546;10.104;2022-10-16T14:47:57;20.90;99.90
11221;DHT22;8517;53.546;10.104;2022-10-16T14:50:25;20.90;99.90
11221;DHT22;8517;53.546;10.104;2022-10-16T14:52:52;20.90;99.90
11221;DHT22;8517;53.546;10.104;2022-10-16T14:55:19;20.90;99.90
11221;DHT22;8517;53.546;10.104;2022-10-16T14:57:46;20.90;99.90
11221;DHT22;8517;53.546;10.104;2022-10-16T15:00:17;20.90;99.90
11221;DHT22;8517;53.546;10.104;2022-10-16T15:02:44;20.80;99.90
11221;DHT22;8517;53.546;10.104;2022-10-16T15:05:15;20.80;99.90
11221;DHT22;8517;53.546;10.104;2022-10-16T15:07:42;20.70;99.90
11221;DHT22;8517;53.546;10.104;2022-10-16T15:10:10;20.70;99.90
11221;DHT22;8517;53.546;10.104;2022-10-16T15:12:37;20.70;99.90
11221;DHT22;8517;53.546;10.104;2022-10-16T15:15:26;20.60;99.90
11221;DHT22;8517;53.546;10.104;2022-10-16T15:17:57;20.60;99.90
11221;DHT22;8517;53.546;10.104;2022-10-16T15:20:28;20.60;99.90
11221;DHT22;8517;53.546;10.104;2022-10-16T15:22:55;20.50;99.90
11221;DHT22;8517;53.546;10.104;2022-10-16T15:25:34;20.50;99.90
11221;DHT22;8517;53.546;10.104;2022-10-16T15:28:03;20.50;99.90
11221;DHT22;8517;53.546;10.104;2022-10-16T15:30:30;20.40;99.90
11221;DHT22;8517;53.546;10.104;2022-10-16T15:32:57;20.40;99.90
11221;DHT22;8517;53.546;10.104;2022-10-16T15:35:23;20.40;99.90
11221;DHT22;8517;53.546;10.104;2022-10-16T15:37:51;20.30;99.90
11221;DHT22;8517;53.546;10.104;2022-10-16T15:40:19;20.30;99.90
11221;DHT22;8517;53.546;10.104;2022-10-16T15:42:46;20.20;99.90
11221;DHT22;8517;53.546;10.104;2022-10-16T15:45:15;20.20;99.90
11221;DHT22;8517;53.546;10.104;2022-10-16T15:47:42;20.10;99.90
11221;DHT22;8517;53.546;10.104;2022-10-16T15:50:10;20.00;99.90
11221;DHT22;8517;53.546;10.104;2022-10-16T15:52:38;19.90;99.90
11221;DHT22;8517;53.546;10.104;2022-10-16T15:55:07;19.90;99.90